Time;durP1;ratioP1;P1;durP2;ratioP2;P2;SDS_P1;SDS_P2;PMS_P1;PMS_P2;Temp;Humidity;BMP_temperature;BMP_pressure;BME280_temperature;BME280_humidity;BME280_pressure;Samples;Min_cycle;Max_cycle;Signal;HPM_P1;HPM_P2
2022/09/29 00:01:08;;;;;;;5.10;2.33;;;7.20;99.90;;;;;;5112178;28;20187;-66
2022/09/29 00:03:35;;;;;;;3.30;2.03;;;7.20;99.90;;;;;;5111752;28;20195;-65
2022/09/29 00:06:00;;;;;;;5.73;2.43;;;7.20;99.90;;;;;;5112410;28;20194;-65
2022/09/29 00:08:28;;;;;;;8.67;2.83;;;7.20;99.90;;;;;;5112189;28;20409;-65
2022/09/29 00:10:54;;;;;;;3.87;1.70;;;7.20;99.90;;;;;;5114755;28;20592;-65
2022/09/29 00:13:21;;;;;;;3.93;2.07;;;7.20;99.90;;;;;;5114771;28;20492;-65
2022/09/29 00:16:00;;;;;;;4.40;1.77;;;7.20;99.90;;;;;;5115777;28;20215;-65
2022/09/29 00:18:27;;;;;;;4.70;2.10;;;7.20;99.90;;;;;;5102751;28;20448;-65
2022/09/29 00:21:05;;;;;;;3.50;2.10;;;7.20;99.90;;;;;;5115746;28;20443;-65
2022/09/29 00:23:32;;;;;;;2.77;1.67;;;7.30;99.90;;;;;;5115355;28;20417;-65
2022/09/29 00:26:00;;;;;;;2.20;1.67;;;7.30;99.90;;;;;;5114724;28;21120;-65
2022/09/29 00:28:26;;;;;;;4.07;2.00;;;7.30;99.90;;;;;;5115359;28;20416;-65
2022/09/29 00:30:51;;;;;;;5.53;2.60;;;7.30;99.90;;;;;;5115593;28;20504;-65
2022/09/29 00:33:17;;;;;;;3.97;2.13;;;7.30;99.90;;;;;;5115188;28;20666;-66
2022/09/29 00:35:42;;;;;;;7.37;2.10;;;7.40;99.90;;;;;;5115565;28;20191;-65
2022/09/29 00:38:08;;;;;;;5.10;2.30;;;7.40;99.90;;;;;;5110331;28;20180;-65
2022/09/29 00:40:34;;;;;;;4.33;1.93;;;7.40;99.90;;;;;;5115437;28;20223;-65
2022/09/29 00:42:59;;;;;;;2.57;1.43;;;7.40;99.90;;;;;;5114895;28;20522;-65
2022/09/29 00:45:25;;;;;;;2.97;2.10;;;7.40;99.90;;;;;;5115160;28;20434;-65
2022/09/29 00:48:11;;;;;;;5.10;1.73;;;7.40;99.90;;;;;;5107063;28;20195;-65
2022/09/29 00:50:47;;;;;;;2.97;1.80;;;7.40;99.90;;;;;;5112856;28;20219;-65
2022/09/29 00:53:15;;;;;;;6.33;1.90;;;7.40;99.90;;;;;;5115093;27;20807;-65
2022/09/29 00:55:46;;;;;;;3.57;1.87;;;7.40;99.90;;;;;;5115509;28;20426;-65
2022/09/29 00:58:27;;;;;;;3.23;1.80;;;7.50;99.90;;;;;;5115012;28;20410;-65
2022/09/29 01:00:54;;;;;;;3.80;1.80;;;7.50;99.90;;;;;;5102465;28;20412;-65
2022/09/29 01:03:21;;;;;;;3.90;1.80;;;7.60;99.90;;;;;;5114425;28;20448;-65
2022/09/29 01:05:53;;;;;;;3.40;1.73;;;7.60;99.90;;;;;;5115255;28;20441;-65
2022/09/29 01:08:31;;;;;;;3.70;1.50;;;7.60;99.90;;;;;;5101608;28;20411;-65
2022/09/29 01:10:59;;;;;;;3.10;1.90;;;7.60;99.90;;;;;;5114755;28;20465;-65
2022/09/29 01:13:25;;;;;;;4.57;2.07;;;7.60;99.90;;;;;;5113685;28;20970;-65
2022/09/29 01:15:51;;;;;;;2.57;1.60;;;7.60;99.90;;;;;;5108268;27;20441;-65
2022/09/29 01:18:16;;;;;;;5.20;2.27;;;7.60;99.90;;;;;;5109176;28;20296;-65
2022/09/29 01:21:21;;;;;;;3.40;1.27;;;7.60;99.90;;;;;;5114263;28;20210;-65
2022/09/29 01:24:18;;;;;;;2.60;1.53;;;7.60;99.90;;;;;;5102530;28;20814;-65
2022/09/29 01:27:08;;;;;;;6.30;2.53;;;7.60;99.90;;;;;;5113855;28;20429;-65
2022/09/29 01:29:48;;;;;;;3.30;1.87;;;7.60;99.90;;;;;;5113880;28;20467;-65
2022/09/29 01:32:29;;;;;;;4.43;2.10;;;7.60;99.90;;;;;;5114046;28;20472;-65
2022/09/29 01:35:17;;;;;;;1.93;1.27;;;7.60;99.90;;;;;;5114467;28;20418;-65
2022/09/29 01:38:04;;;;;;;4.77;2.20;;;7.60;99.90;;;;;;5109205;28;20438;-65
2022/09/29 01:41:06;;;;;;;2.57;1.67;;;7.60;99.90;;;;;;5114276;28;20420;-65
2022/09/29 01:43:43;;;;;;;3.47;1.67;;;7.60;99.90;;;;;;5113301;28;20417;-65
2022/09/29 01:46:17;;;;;;;3.80;2.33;;;7.50;99.90;;;;;;5101707;28;20406;-65
2022/09/29 01:48:47;;;;;;;15.57;2.50;;;7.50;99.90;;;;;;5113922;28;20428;-65
2022/09/29 01:51:18;;;;;;;3.37;1.80;;;7.50;99.90;;;;;;5114277;28;20461;-65
2022/09/29 01:53:52;;;;;;;2.63;1.63;;;7.50;99.90;;;;;;5113826;28;20521;-65
2022/09/29 01:56:27;;;;;;;2.60;1.77;;;7.50;99.90;;;;;;5113973;28;20509;-65
2022/09/29 01:59:01;;;;;;;3.43;1.80;;;7.50;99.90;;;;;;5113407;28;20413;-65
2022/09/29 02:01:31;;;;;;;7.67;2.40;;;7.50;99.90;;;;;;5113691;27;20418;-65
2022/09/29 02:04:02;;;;;;;2.80;1.77;;;7.50;99.90;;;;;;5113718;28;20455;-65
2022/09/29 02:06:37;;;;;;;3.73;2.03;;;7.50;99.90;;;;;;5113653;28;20751;-65
2022/09/29 02:09:07;;;;;;;3.03;1.67;;;7.50;99.90;;;;;;5102285;28;20416;-65
2022/09/29 02:11:37;;;;;;;3.43;1.73;;;7.50;99.90;;;;;;5113262;28;20473;-65
2022/09/29 02:14:36;;;;;;;3.87;2.50;;;7.50;99.90;;;;;;5112861;28;20422;-65
2022/09/29 02:17:19;;;;;;;3.27;2.00;;;7.50;99.90;;;;;;5090275;28;20504;-65
2022/09/29 02:19:48;;;;;;;8.90;2.67;;;7.50;99.90;;;;;;5113343;28;20418;-65
2022/09/29 02:22:14;;;;;;;5.07;2.23;;;7.60;99.90;;;;;;5113206;27;20465;-65
2022/09/29 02:24:40;;;;;;;3.67;1.83;;;7.60;99.90;;;;;;5113324;27;20501;-65
2022/09/29 02:27:06;;;;;;;5.10;1.70;;;7.60;99.90;;;;;;5112265;28;20428;-63
2022/09/29 02:29:33;;;;;;;6.20;2.60;;;7.60;99.90;;;;;;5112744;28;20425;-64
2022/09/29 02:32:01;;;;;;;6.93;2.80;;;7.60;99.90;;;;;;5112522;28;20660;-64
2022/09/29 02:34:31;;;;;;;5.60;2.00;;;7.60;99.90;;;;;;5112944;28;20421;-65
2022/09/29 02:36:56;;;;;;;8.77;3.33;;;7.60;99.90;;;;;;5113377;28;20417;-64
2022/09/29 02:39:32;;;;;;;7.13;3.00;;;7.70;99.90;;;;;;5113277;28;20462;-65
2022/09/29 02:42:26;;;;;;;3.50;2.10;;;7.70;99.90;;;;;;5112812;28;20183;-64
2022/09/29 02:45:10;;;;;;;6.77;1.90;;;7.70;99.90;;;;;;5096873;28;20776;-64
2022/09/29 02:48:09;;;;;;;5.23;2.00;;;7.70;99.90;;;;;;5113067;28;20953;-64
2022/09/29 02:50:52;;;;;;;3.27;2.03;;;7.70;99.90;;;;;;5112982;28;20789;-64
2022/09/29 02:53:28;;;;;;;4.50;2.10;;;7.70;99.90;;;;;;5112429;28;20465;-65
2022/09/29 02:55:56;;;;;;;6.70;2.00;;;7.70;99.90;;;;;;5100430;28;20413;-64
2022/09/29 02:58:38;;;;;;;3.23;2.00;;;7.70;99.90;;;;;;5112531;28;20463;-64
2022/09/29 03:01:05;;;;;;;4.23;1.93;;;7.70;99.90;;;;;;5113024;28;20410;-64
2022/09/29 03:03:30;;;;;;;5.37;1.80;;;7.60;99.90;;;;;;5112190;28;20417;-64
2022/09/29 03:05:56;;;;;;;3.23;1.70;;;7.60;99.90;;;;;;5112956;28;20438;-64
2022/09/29 03:08:21;;;;;;;2.83;2.20;;;7.60;99.90;;;;;;5100018;28;20183;-65
2022/09/29 03:10:48;;;;;;;6.03;2.30;;;7.50;99.90;;;;;;5112900;28;20187;-64
2022/09/29 03:13:14;;;;;;;3.93;1.90;;;7.50;99.90;;;;;;5111807;28;20256;-65
2022/09/29 03:15:39;;;;;;;3.23;1.47;;;7.50;99.90;;;;;;5112123;28;20421;-65
2022/09/29 03:18:06;;;;;;;4.47;2.07;;;7.40;99.90;;;;;;5106502;28;20262;-65
2022/09/29 03:20:31;;;;;;;3.70;2.00;;;7.30;99.90;;;;;;5112512;28;20224;-65
2022/09/29 03:22:57;;;;;;;5.10;2.37;;;7.30;99.90;;;;;;5112198;28;20421;-65
2022/09/29 03:25:24;;;;;;;6.63;2.10;;;7.20;99.90;;;;;;5111327;28;20198;-65
2022/09/29 03:27:50;;;;;;;3.93;1.80;;;7.20;99.90;;;;;;5112781;28;20184;-65
2022/09/29 03:30:16;;;;;;;3.90;2.00;;;7.20;99.90;;;;;;5111869;28;20435;-65
2022/09/29 03:32:42;;;;;;;2.70;1.80;;;7.10;99.90;;;;;;5111922;28;20473;-65
2022/09/29 03:35:09;;;;;;;5.80;2.13;;;7.10;99.90;;;;;;5112428;28;20417;-65
2022/09/29 03:37:35;;;;;;;3.70;1.43;;;7.00;99.90;;;;;;5107761;28;20207;-65
2022/09/29 03:40:01;;;;;;;8.37;1.37;;;6.90;99.90;;;;;;5112409;28;20460;-65
2022/09/29 03:42:27;;;;;;;3.73;1.90;;;6.90;99.90;;;;;;5112021;28;20251;-65
2022/09/29 03:44:53;;;;;;;3.93;2.10;;;6.80;99.90;;;;;;5114690;28;20428;-65
2022/09/29 03:47:19;;;;;;;3.40;2.27;;;6.70;99.90;;;;;;5116580;28;20462;-65
2022/09/29 03:49:45;;;;;;;4.57;2.00;;;6.70;99.90;;;;;;5116456;28;20425;-65
2022/09/29 03:52:10;;;;;;;4.10;2.43;;;6.60;99.90;;;;;;5115646;28;20251;-65
2022/09/29 03:54:36;;;;;;;3.90;2.40;;;6.60;99.90;;;;;;5116535;28;20193;-65
2022/09/29 03:57:02;;;;;;;6.20;3.03;;;6.50;99.90;;;;;;5116643;28;20183;-65
2022/09/29 03:59:27;;;;;;;3.43;2.20;;;6.50;99.90;;;;;;5115752;28;20187;-65
2022/09/29 04:01:53;;;;;;;10.40;2.10;;;6.40;99.90;;;;;;5115872;28;20221;-65
2022/09/29 04:04:18;;;;;;;3.23;1.93;;;6.40;99.90;;;;;;5116370;28;20187;-65
2022/09/29 04:06:44;;;;;;;5.13;2.63;;;6.40;99.90;;;;;;5113982;28;20191;-65
2022/09/29 04:09:10;;;;;;;3.00;1.60;;;6.30;99.90;;;;;;5106762;28;20188;-65
2022/09/29 04:11:35;;;;;;;6.33;1.90;;;6.30;99.90;;;;;;5115919;28;20691;-65
2022/09/29 04:14:01;;;;;;;4.97;2.10;;;6.20;99.90;;;;;;5113296;28;20203;-65
2022/09/29 04:16:27;;;;;;;2.90;1.77;;;6.10;99.90;;;;;;5113362;28;20255;-65
2022/09/29 04:18:52;;;;;;;3.93;2.10;;;6.10;99.90;;;;;;5115978;28;20598;-65
2022/09/29 04:21:18;;;;;;;5.60;2.60;;;6.10;99.90;;;;;;5115696;28;20199;-65
2022/09/29 04:23:45;;;;;;;4.43;2.13;;;6.00;99.90;;;;;;5114239;28;20191;-65
2022/09/29 04:26:10;;;;;;;3.70;2.20;;;6.00;99.90;;;;;;5113746;28;20187;-65
2022/09/29 04:28:37;;;;;;;4.17;1.90;;;6.00;99.90;;;;;;5115340;28;20537;-65
2022/09/29 04:31:03;;;;;;;5.80;2.23;;;5.90;99.90;;;;;;5115511;28;20200;-65
2022/09/29 04:33:30;;;;;;;10.93;3.80;;;5.90;99.90;;;;;;5115100;28;20410;-65
2022/09/29 04:35:56;;;;;;;16.60;6.23;;;5.90;99.90;;;;;;5115696;27;20428;-65
2022/09/29 04:38:21;;;;;;;16.30;6.30;;;5.90;99.90;;;;;;5109555;28;20433;-65
2022/09/29 04:40:47;;;;;;;10.43;4.17;;;5.90;99.90;;;;;;5115734;28;20447;-65
2022/09/29 04:43:13;;;;;;;6.23;3.20;;;5.90;99.90;;;;;;5114997;28;20183;-65
2022/09/29 04:45:38;;;;;;;5.63;2.63;;;5.90;99.90;;;;;;5114762;28;20605;-66
2022/09/29 04:48:04;;;;;;;2.77;1.97;;;5.80;99.90;;;;;;5115337;28;20199;-66
2022/09/29 04:50:30;;;;;;;4.97;2.03;;;5.80;99.90;;;;;;5115479;28;20187;-65
2022/09/29 04:52:55;;;;;;;3.40;2.00;;;5.80;99.90;;;;;;5114851;28;20721;-65
2022/09/29 04:55:21;;;;;;;4.73;2.37;;;5.80;99.90;;;;;;5114425;28;20534;-66
2022/09/29 04:57:47;;;;;;;4.57;2.33;;;5.80;99.90;;;;;;5115400;28;20228;-66
2022/09/29 05:00:14;;;;;;;10.17;3.33;;;5.70;99.90;;;;;;5114430;28;20190;-65
2022/09/29 05:02:40;;;;;;;12.80;3.87;;;5.70;99.90;;;;;;5114710;28;20421;-65
2022/09/29 05:05:06;;;;;;;6.40;2.13;;;5.70;99.90;;;;;;5115054;28;20424;-65
2022/09/29 05:07:36;;;;;;;6.00;2.93;;;5.70;99.90;;;;;;5114998;28;20527;-65
2022/09/29 05:10:02;;;;;;;5.70;2.70;;;5.70;99.90;;;;;;5114776;28;20909;-65
2022/09/29 05:12:28;;;;;;;4.03;2.50;;;5.70;99.90;;;;;;5114481;28;20457;-66
2022/09/29 05:14:53;;;;;;;5.17;2.37;;;5.70;99.90;;;;;;5114127;28;20424;-65
2022/09/29 05:17:19;;;;;;;5.30;3.20;;;5.70;99.90;;;;;;5113397;28;20639;-65
2022/09/29 05:19:44;;;;;;;3.60;1.67;;;5.80;99.90;;;;;;5113662;28;20191;-65
2022/09/29 05:22:10;;;;;;;3.87;1.97;;;5.80;99.90;;;;;;5114322;28;20217;-65
2022/09/29 05:24:35;;;;;;;4.07;2.30;;;5.80;99.90;;;;;;5113903;28;20198;-65
2022/09/29 05:27:01;;;;;;;6.17;2.50;;;5.90;99.90;;;;;;5114075;28;20232;-65
2022/09/29 05:29:26;;;;;;;4.23;2.30;;;5.80;99.90;;;;;;5113718;28;20184;-65
2022/09/29 05:31:52;;;;;;;3.37;2.40;;;5.80;99.90;;;;;;5114083;28;20316;-65
2022/09/29 05:34:18;;;;;;;7.47;3.50;;;5.80;99.90;;;;;;5114327;28;20191;-65
2022/09/29 05:36:43;;;;;;;10.53;2.57;;;5.80;99.90;;;;;;5114721;28;20175;-66
2022/09/29 05:39:10;;;;;;;4.77;2.63;;;5.70;99.90;;;;;;5111362;28;20190;-65
2022/09/29 05:41:35;;;;;;;14.23;3.73;;;5.70;99.90;;;;;;5114157;28;20195;-65
2022/09/29 05:44:01;;;;;;;5.90;2.90;;;5.70;99.90;;;;;;5113349;28;20891;-65
2022/09/29 05:46:26;;;;;;;7.83;4.17;;;5.80;99.90;;;;;;5112930;28;20283;-65
2022/09/29 05:48:52;;;;;;;6.53;3.40;;;5.80;99.90;;;;;;5114195;28;20199;-65
2022/09/29 05:51:22;;;;;;;7.50;4.50;;;5.80;99.90;;;;;;5114236;28;20192;-65
2022/09/29 05:53:47;;;;;;;11.80;4.77;;;5.80;99.90;;;;;;5113587;28;20191;-65
2022/09/29 05:56:22;;;;;;;8.97;5.20;;;5.90;99.90;;;;;;5113872;28;20417;-65
2022/09/29 05:58:47;;;;;;;15.67;7.80;;;5.90;99.90;;;;;;5103898;28;20211;-65
2022/09/29 06:01:16;;;;;;;10.40;4.93;;;5.90;99.90;;;;;;5113891;28;20437;-65
2022/09/29 06:03:42;;;;;;;9.20;5.83;;;5.90;99.90;;;;;;5113364;28;20578;-66
2022/09/29 06:06:20;;;;;;;6.67;3.80;;;6.00;99.90;;;;;;5113994;28;20422;-65
2022/09/29 06:08:46;;;;;;;10.00;5.27;;;6.00;99.90;;;;;;5101409;28;20488;-65
2022/09/29 06:11:15;;;;;;;7.07;3.43;;;6.00;99.90;;;;;;5113606;28;20425;-65
2022/09/29 06:13:43;;;;;;;9.80;5.00;;;6.10;99.90;;;;;;5112895;28;20500;-65
2022/09/29 06:16:10;;;;;;;7.53;4.47;;;6.10;99.90;;;;;;5108574;28;20449;-65
2022/09/29 06:18:36;;;;;;;9.40;4.37;;;6.30;99.90;;;;;;5113531;28;20425;-65
2022/09/29 06:21:06;;;;;;;4.93;3.67;;;6.30;99.90;;;;;;5113445;28;20486;-65
2022/09/29 06:23:32;;;;;;;6.90;3.30;;;6.40;99.90;;;;;;5112671;28;20457;-65
2022/09/29 06:25:58;;;;;;;15.00;4.20;;;6.40;99.90;;;;;;5103146;28;20498;-65
2022/09/29 06:28:24;;;;;;;4.53;3.07;;;6.50;99.90;;;;;;5104197;28;20914;-66
2022/09/29 06:30:50;;;;;;;5.47;3.80;;;6.60;99.90;;;;;;5104928;28;20428;-65
2022/09/29 06:33:16;;;;;;;4.80;2.23;;;6.50;99.90;;;;;;5112310;28;20203;-66
2022/09/29 06:38:33;;;;;;;8.43;3.77;;;6.60;99.90;;;;;;5110882;28;20462;-65
2022/09/29 06:40:59;;;;;;;6.43;4.00;;;6.70;99.90;;;;;;5112658;28;20409;-65
2022/09/29 06:43:25;;;;;;;4.53;3.00;;;6.80;99.90;;;;;;5111898;28;20516;-65
2022/09/29 06:45:50;;;;;;;4.60;3.27;;;6.80;99.90;;;;;;5110526;28;20428;-66
2022/09/29 06:48:16;;;;;;;5.20;3.00;;;6.80;99.90;;;;;;5112837;28;20186;-65
2022/09/29 06:50:42;;;;;;;6.80;3.00;;;6.80;99.90;;;;;;5113734;28;20180;-68
2022/09/29 06:53:07;;;;;;;6.53;3.00;;;6.90;99.90;;;;;;5113261;28;20210;-66
2022/09/29 06:55:33;;;;;;;5.80;3.20;;;6.90;99.90;;;;;;5108563;28;20183;-65
2022/09/29 06:57:59;;;;;;;6.23;3.13;;;6.90;99.90;;;;;;5108247;28;20180;-65
2022/09/29 07:00:25;;;;;;;11.60;3.67;;;7.00;99.90;;;;;;5107217;28;20950;-65
2022/09/29 07:02:50;;;;;;;4.00;2.60;;;7.10;99.90;;;;;;5111568;28;20183;-65
2022/09/29 07:05:16;;;;;;;4.77;2.90;;;7.20;99.90;;;;;;5112302;28;20192;-65
2022/09/29 07:07:41;;;;;;;6.80;4.10;;;7.20;99.90;;;;;;5104797;28;21324;-65
2022/09/29 07:10:08;;;;;;;15.80;4.07;;;7.20;99.90;;;;;;5106312;28;20199;-65
2022/09/29 07:12:34;;;;;;;10.13;4.27;;;7.30;99.90;;;;;;5111483;28;20204;-65
2022/09/29 07:14:59;;;;;;;5.73;3.57;;;7.40;99.90;;;;;;5094553;28;21189;-65
2022/09/29 07:17:25;;;;;;;6.53;3.23;;;7.40;99.90;;;;;;5103555;28;20258;-65
2022/09/29 07:19:53;;;;;;;9.43;2.63;;;7.50;99.90;;;;;;5110189;28;20420;-66
2022/09/29 07:22:19;;;;;;;7.13;3.50;;;7.50;99.90;;;;;;5108502;28;20175;-65
2022/09/29 07:24:46;;;;;;;5.90;2.53;;;7.60;99.90;;;;;;5111880;28;20550;-65
2022/09/29 07:27:12;;;;;;;4.43;2.93;;;7.60;99.90;;;;;;5110740;28;20187;-65
2022/09/29 07:29:38;;;;;;;4.63;2.93;;;7.60;99.90;;;;;;5111138;28;20421;-65
2022/09/29 07:32:03;;;;;;;5.23;3.13;;;7.70;99.90;;;;;;5111679;28;20671;-66
2022/09/29 07:34:29;;;;;;;4.73;2.90;;;7.80;99.90;;;;;;5107748;28;20259;-65
2022/09/29 07:36:55;;;;;;;4.23;2.70;;;7.90;99.90;;;;;;5098677;28;20642;-64
2022/09/29 07:39:21;;;;;;;4.27;2.40;;;8.00;99.90;;;;;;5110421;28;20550;-65
2022/09/29 07:41:47;;;;;;;8.30;3.13;;;8.10;99.90;;;;;;5111110;28;20190;-64
2022/09/29 07:44:13;;;;;;;4.60;1.97;;;8.20;99.90;;;;;;5106987;28;20525;-64
2022/09/29 07:46:38;;;;;;;7.37;3.03;;;8.30;99.90;;;;;;5111238;28;20205;-64
2022/09/29 07:49:04;;;;;;;4.13;1.93;;;8.40;99.90;;;;;;5111296;28;20187;-65
2022/09/29 07:51:30;;;;;;;3.63;2.10;;;8.50;99.90;;;;;;5111362;28;20195;-65
2022/09/29 07:54:02;;;;;;;10.03;2.27;;;8.60;99.90;;;;;;5111724;28;20184;-64
2022/09/29 07:56:28;;;;;;;3.27;1.70;;;8.60;99.90;;;;;;5108476;28;20419;-64
2022/09/29 07:58:55;;;;;;;2.70;1.57;;;8.70;99.90;;;;;;5109304;28;20436;-64
2022/09/29 08:01:21;;;;;;;3.07;1.70;;;8.70;99.90;;;;;;5105709;28;20578;-64
2022/09/29 08:03:52;;;;;;;4.00;1.90;;;8.90;99.90;;;;;;5111188;28;20428;-64
2022/09/29 08:06:18;;;;;;;2.80;1.50;;;8.90;99.90;;;;;;5110806;28;20448;-64
2022/09/29 08:08:45;;;;;;;1.70;1.00;;;9.00;99.90;;;;;;5097633;28;20763;-65
2022/09/29 08:11:16;;;;;;;3.37;1.57;;;9.10;99.90;;;;;;5099938;28;20456;-65
2022/09/29 08:13:42;;;;;;;3.30;1.43;;;9.10;99.90;;;;;;5098652;28;20449;-64
2022/09/29 08:16:11;;;;;;;1.47;0.90;;;9.10;99.90;;;;;;5108300;28;20512;-64
2022/09/29 08:18:38;;;;;;;2.70;1.67;;;9.20;99.90;;;;;;5109333;28;20524;-63
2022/09/29 08:21:04;;;;;;;7.43;2.27;;;9.20;99.90;;;;;;5106976;28;20449;-62
2022/09/29 08:23:34;;;;;;;2.07;1.37;;;9.30;99.90;;;;;;5104743;28;20447;-62
2022/09/29 08:26:07;;;;;;;2.43;1.30;;;9.30;99.90;;;;;;5104739;28;20426;-63
2022/09/29 08:28:35;;;;;;;2.33;1.17;;;9.50;99.90;;;;;;5097880;28;20476;-68
2022/09/29 08:31:06;;;;;;;3.50;1.70;;;9.50;99.90;;;;;;5103692;28;20996;-64
2022/09/29 08:33:32;;;;;;;2.93;1.13;;;9.60;99.90;;;;;;5105861;28;20502;-64
2022/09/29 08:35:59;;;;;;;2.63;1.10;;;9.90;99.90;;;;;;5113769;28;20429;-64
2022/09/29 08:38:25;;;;;;;1.87;1.13;;;10.10;99.90;;;;;;5104601;28;20191;-66
2022/09/29 08:40:53;;;;;;;6.13;1.30;;;10.30;99.90;;;;;;5110025;28;20797;-66
2022/09/29 08:43:40;;;;;;;4.90;0.80;;;10.30;99.90;;;;;;5111348;28;20430;-66
2022/09/29 08:46:23;;;;;;;1.93;1.13;;;10.10;99.90;;;;;;5108430;28;20938;-64
2022/09/29 08:48:50;;;;;;;3.67;1.50;;;10.10;99.90;;;;;;5108015;27;20452;-65
2022/09/29 08:51:28;;;;;;;6.00;1.60;;;10.30;99.90;;;;;;5101137;27;20449;-66
2022/09/29 08:53:57;;;;;;;3.50;1.30;;;10.50;99.90;;;;;;5109400;28;20516;-66
2022/09/29 08:56:28;;;;;;;11.03;1.47;;;10.50;99.90;;;;;;5112211;28;20915;-66
2022/09/29 08:59:02;;;;;;;1.83;1.00;;;10.60;99.90;;;;;;5093793;28;20422;-66
2022/09/29 09:02:20;;;;;;;2.07;0.80;;;10.60;99.90;;;;;;5105963;28;20418;-65
2022/09/29 09:05:13;;;;;;;1.90;1.20;;;10.70;99.90;;;;;;5026343;28;20425;-66
2022/09/29 09:07:50;;;;;;;2.53;1.07;;;10.70;99.90;;;;;;5022087;28;21124;-64
2022/09/29 09:10:46;;;;;;;2.17;1.10;;;10.70;99.90;;;;;;5089592;28;20892;-64
2022/09/29 09:13:55;;;;;;;4.30;1.70;;;10.90;99.90;;;;;;5101237;28;20462;-63
2022/09/29 09:17:00;;;;;;;1.87;1.20;;;11.10;99.90;;;;;;5087532;28;20558;-64
2022/09/29 09:19:35;;;;;;;2.87;1.20;;;11.10;99.90;;;;;;5107476;28;20434;-64
2022/09/29 09:22:21;;;;;;;3.30;1.50;;;11.10;99.90;;;;;;5111665;28;20448;-64
2022/09/29 09:24:56;;;;;;;2.03;1.13;;;11.00;99.90;;;;;;5097710;28;20434;-64
2022/09/29 09:27:29;;;;;;;3.73;2.17;;;11.10;99.90;;;;;;5103573;28;20421;-63
2022/09/29 09:30:11;;;;;;;8.30;1.53;;;11.00;99.90;;;;;;5101575;28;20433;-64
2022/09/29 09:32:45;;;;;;;3.10;1.37;;;11.00;99.90;;;;;;5105703;28;20938;-63
2022/09/29 09:35:49;;;;;;;1.67;0.97;;;11.00;99.90;;;;;;5109403;28;20429;-64
2022/09/29 09:38:20;;;;;;;4.07;1.43;;;10.90;99.90;;;;;;5111174;28;20435;-63
2022/09/29 09:40:52;;;;;;;2.60;1.00;;;10.90;99.90;;;;;;5112515;28;20768;-63
2022/09/29 09:43:30;;;;;;;3.43;1.37;;;10.90;99.90;;;;;;5111553;28;20452;-64
2022/09/29 09:46:23;;;;;;;2.07;1.00;;;11.10;99.90;;;;;;5112557;28;20425;-64
2022/09/29 09:49:03;;;;;;;4.33;1.10;;;11.20;99.90;;;;;;5109191;27;20441;-64
2022/09/29 09:52:19;;;;;;;1.87;0.90;;;11.30;99.90;;;;;;5105599;28;20433;-63
2022/09/29 09:54:50;;;;;;;3.00;1.10;;;11.30;99.90;;;;;;5037936;28;20424;-64
2022/09/29 09:57:33;;;;;;;7.23;1.77;;;11.50;99.90;;;;;;5094188;28;20516;-63
2022/09/29 09:59:59;;;;;;;7.63;1.20;;;11.50;99.90;;;;;;5109792;28;20460;-64
2022/09/29 10:02:24;;;;;;;8.50;0.93;;;11.50;99.90;;;;;;5104623;28;20429;-63
2022/09/29 10:04:52;;;;;;;1.77;0.80;;;11.50;99.90;;;;;;5112812;28;20425;-64
2022/09/29 10:07:23;;;;;;;5.90;1.43;;;11.60;99.90;;;;;;5103295;28;20196;-63
2022/09/29 10:09:49;;;;;;;2.80;0.97;;;11.70;99.90;;;;;;5104251;28;20531;-64
2022/09/29 10:12:20;;;;;;;1.30;0.60;;;11.70;99.90;;;;;;5105688;28;20994;-63
2022/09/29 10:14:59;;;;;;;1.80;0.90;;;11.70;99.90;;;;;;5107521;28;20208;-63
2022/09/29 10:17:41;;;;;;;2.07;0.90;;;11.80;99.90;;;;;;5103677;28;20452;-64
2022/09/29 10:20:08;;;;;;;4.73;1.00;;;11.90;99.90;;;;;;5103046;28;20445;-64
2022/09/29 10:22:34;;;;;;;1.77;0.93;;;11.80;99.90;;;;;;5101909;28;20437;-64
2022/09/29 10:25:17;;;;;;;1.93;0.97;;;11.90;99.90;;;;;;5109377;28;20445;-64
2022/09/29 10:27:47;;;;;;;1.60;1.00;;;11.90;99.90;;;;;;5100711;28;20436;-63
2022/09/29 10:30:38;;;;;;;5.80;1.37;;;12.10;99.90;;;;;;5098902;28;20529;-63
2022/09/29 10:33:05;;;;;;;1.93;0.90;;;12.20;99.90;;;;;;5102319;28;20466;-64
2022/09/29 10:35:39;;;;;;;5.47;1.17;;;12.00;99.90;;;;;;5102669;28;20514;-64
2022/09/29 10:38:14;;;;;;;3.00;1.27;;;11.90;99.90;;;;;;5100781;28;20497;-64
2022/09/29 10:40:57;;;;;;;2.37;0.97;;;12.00;99.90;;;;;;5092660;28;20527;-63
2022/09/29 10:43:26;;;;;;;1.70;0.83;;;12.00;99.90;;;;;;5099239;28;20463;-63
2022/09/29 10:45:57;;;;;;;2.60;0.90;;;12.20;99.90;;;;;;5097242;28;20458;-64
2022/09/29 10:48:24;;;;;;;1.60;0.83;;;12.20;99.90;;;;;;5095257;28;20795;-63
2022/09/29 10:51:02;;;;;;;2.40;1.03;;;12.20;99.90;;;;;;5100828;28;20468;-64
2022/09/29 10:53:39;;;;;;;2.80;1.00;;;12.30;99.90;;;;;;5100648;28;20989;-64
2022/09/29 10:56:15;;;;;;;1.40;0.60;;;12.30;99.90;;;;;;5097367;28;20902;-64
2022/09/29 10:58:51;;;;;;;1.40;0.60;;;12.30;99.90;;;;;;5098087;28;20410;-63
2022/09/29 11:01:18;;;;;;;2.00;0.80;;;12.40;99.90;;;;;;5105890;28;20483;-63
2022/09/29 11:03:49;;;;;;;2.00;0.73;;;12.40;99.90;;;;;;5100879;28;20453;-65
2022/09/29 11:06:15;;;;;;;1.80;0.80;;;12.40;99.90;;;;;;5101543;28;20457;-63
2022/09/29 11:09:05;;;;;;;1.30;0.50;;;12.60;99.90;;;;;;5095047;28;20425;-64
2022/09/29 11:11:38;;;;;;;3.13;1.10;;;12.70;99.90;;;;;;5087551;28;20434;-64
2022/09/29 11:14:04;;;;;;;1.90;0.87;;;12.90;99.90;;;;;;5100497;28;20437;-64
2022/09/29 11:16:36;;;;;;;1.50;0.70;;;13.10;99.90;;;;;;5111371;28;20840;-64
2022/09/29 11:19:09;;;;;;;1.93;0.77;;;12.80;99.90;;;;;;5099007;28;20179;-64
2022/09/29 11:21:41;;;;;;;3.20;0.93;;;12.60;99.90;;;;;;5111431;28;20815;-65
2022/09/29 11:24:23;;;;;;;1.60;0.73;;;12.70;99.90;;;;;;5112079;28;20524;-65
2022/09/29 11:26:57;;;;;;;2.77;0.80;;;12.70;99.90;;;;;;5110850;28;20444;-64
2022/09/29 11:29:32;;;;;;;2.80;0.60;;;12.90;99.90;;;;;;5111622;28;20463;-64
2022/09/29 11:32:29;;;;;;;3.13;0.97;;;13.00;99.90;;;;;;5111252;28;20493;-65
2022/09/29 11:35:04;;;;;;;1.80;0.70;;;13.10;99.90;;;;;;5112003;28;20422;-64
2022/09/29 11:37:49;;;;;;;4.20;1.10;;;13.10;99.90;;;;;;5111302;28;20458;-65
2022/09/29 11:40:42;;;;;;;4.13;1.00;;;13.00;99.90;;;;;;5098096;28;20413;-64
2022/09/29 11:43:14;;;;;;;2.57;0.87;;;12.90;99.90;;;;;;5097551;28;20429;-65
2022/09/29 11:46:06;;;;;;;4.60;0.77;;;12.90;99.90;;;;;;5110946;28;20425;-64
2022/09/29 11:48:53;;;;;;;1.90;0.60;;;12.90;99.90;;;;;;5092124;28;21269;-64
2022/09/29 11:52:02;;;;;;;1.90;0.80;;;12.80;98.80;;;;;;5098123;28;20457;-65
2022/09/29 11:54:56;;;;;;;1.40;0.60;;;12.80;99.40;;;;;;5097865;28;20414;-65
2022/09/29 11:57:52;;;;;;;1.93;0.60;;;12.90;98.90;;;;;;5097900;28;20406;-64
2022/09/29 12:00:20;;;;;;;2.13;1.00;;;12.80;99.40;;;;;;5098766;28;21146;-65
2022/09/29 12:03:13;;;;;;;1.83;0.70;;;12.90;99.30;;;;;;5106752;28;20994;-64
2022/09/29 12:06:00;;;;;;;1.77;0.60;;;13.00;99.40;;;;;;5093623;28;20759;-64
2022/09/29 12:08:44;;;;;;;2.23;0.80;;;12.90;99.50;;;;;;5104576;28;20505;-64
2022/09/29 12:11:30;;;;;;;2.00;0.80;;;12.70;99.30;;;;;;5108684;28;20418;-64
2022/09/29 12:14:19;;;;;;;1.30;0.70;;;12.60;99.60;;;;;;5107968;28;20947;-64
2022/09/29 12:17:03;;;;;;;1.37;0.70;;;12.80;99.50;;;;;;5113523;28;20417;-64
2022/09/29 12:19:32;;;;;;;1.90;0.60;;;12.90;99.40;;;;;;5114738;28;20947;-64
2022/09/29 12:22:01;;;;;;;1.20;0.50;;;13.00;99.20;;;;;;5113813;28;20437;-64
2022/09/29 12:24:41;;;;;;;1.97;0.80;;;13.10;98.70;;;;;;5110713;28;20461;-64
2022/09/29 12:27:13;;;;;;;2.40;0.63;;;13.30;98.40;;;;;;5110593;28;20626;-64
2022/09/29 12:29:45;;;;;;;4.60;1.00;;;13.70;97.00;;;;;;5113897;28;20472;-64
2022/09/29 12:32:25;;;;;;;1.80;0.83;;;13.60;97.20;;;;;;5113651;28;20467;-64
2022/09/29 12:35:03;;;;;;;1.93;0.70;;;13.50;97.30;;;;;;5111787;28;20418;-64
2022/09/29 12:37:42;;;;;;;1.60;0.70;;;13.40;97.80;;;;;;5112140;28;20482;-65
2022/09/29 12:40:14;;;;;;;1.63;0.50;;;13.30;97.40;;;;;;5109507;28;20421;-65
2022/09/29 12:43:01;;;;;;;2.07;0.70;;;13.30;98.30;;;;;;5109536;28;20508;-65
2022/09/29 12:45:34;;;;;;;1.30;0.50;;;13.30;97.00;;;;;;5111158;28;20439;-65
2022/09/29 12:48:14;;;;;;;4.37;0.80;;;13.30;97.00;;;;;;5111607;28;20432;-62
2022/09/29 12:51:09;;;;;;;1.23;0.50;;;13.20;98.10;;;;;;5110935;28;20425;-62
2022/09/29 12:53:49;;;;;;;2.30;0.83;;;13.20;98.30;;;;;;5112019;28;21188;-64
2022/09/29 12:56:28;;;;;;;1.50;0.63;;;13.20;98.30;;;;;;5112806;28;20408;-64
2022/09/29 12:59:12;;;;;;;2.10;0.80;;;13.20;97.00;;;;;;5113800;28;20420;-64
2022/09/29 13:01:38;;;;;;;1.83;0.93;;;13.30;97.00;;;;;;5108938;28;20449;-64
2022/09/29 13:04:36;;;;;;;1.73;0.80;;;13.40;96.70;;;;;;5112483;27;20457;-65
2022/09/29 13:07:13;;;;;;;1.27;0.57;;;13.50;96.20;;;;;;5110504;28;20500;-65
2022/09/29 13:09:39;;;;;;;1.50;0.60;;;13.40;96.10;;;;;;5112808;28;20425;-64
2022/09/29 13:12:22;;;;;;;1.60;0.70;;;13.40;95.70;;;;;;5112001;28;20461;-64
2022/09/29 13:15:20;;;;;;;2.53;0.93;;;13.50;96.60;;;;;;5111489;28;20191;-65
2022/09/29 13:18:20;;;;;;;1.30;0.60;;;13.50;97.00;;;;;;5111056;28;20418;-64
2022/09/29 13:21:04;;;;;;;1.20;0.50;;;13.50;96.20;;;;;;5111528;28;20441;-65
2022/09/29 13:24:19;;;;;;;2.60;0.70;;;13.50;95.60;;;;;;5112683;28;20426;-64